createdAt,value
2018-12-06T00:00:37.684Z,10.72
2018-12-06T00:03:08.422Z,15.28
2018-12-06T00:05:38.200Z,12.20
2018-12-06T00:08:15.917Z,14.38
2018-12-06T00:10:45.722Z,7.30
2018-12-06T00:13:15.703Z,16.30
2018-12-06T00:15:46.556Z,13.20
2018-12-06T00:18:16.801Z,15.28
2018-12-06T00:20:46.753Z,15.03
2018-12-06T00:23:17.263Z,12.47
2018-12-06T00:25:48.325Z,10.25
2018-12-06T00:28:18.760Z,9.55
2018-12-06T00:30:49.447Z,13.32
2018-12-06T00:33:19.369Z,13.45
2018-12-06T00:35:49.813Z,13.00
2018-12-06T00:38:19.893Z,10.48
2018-12-06T00:40:50.141Z,13.38
2018-12-06T00:43:23.813Z,12.18
2018-12-06T00:45:55.208Z,13.08
2018-12-06T00:48:25.385Z,11.80
2018-12-06T00:50:55.319Z,13.72
2018-12-06T00:53:26.572Z,21.33
2018-12-06T00:55:57.218Z,13.60
2018-12-06T00:58:27.624Z,19.15
2018-12-06T01:00:58.328Z,10.35
2018-12-06T01:03:29.574Z,11.03
2018-12-06T01:06:00.574Z,13.25
2018-12-06T01:08:34.916Z,12.20
2018-12-06T01:11:07.302Z,14.58
2018-12-06T01:13:37.633Z,16.00
2018-12-06T01:16:08.670Z,13.35
2018-12-06T01:18:40.253Z,12.82
2018-12-06T01:21:10.667Z,11.90
2018-12-06T01:23:40.605Z,10.10
2018-12-06T01:26:10.937Z,18.55
2018-12-06T01:28:41.155Z,9.18
2018-12-06T01:31:12.642Z,8.38
2018-12-06T01:33:42.947Z,10.95
2018-12-06T01:36:12.657Z,13.78
2018-12-06T01:38:42.741Z,7.53
2018-12-06T01:41:12.736Z,16.62
2018-12-06T01:43:42.517Z,17.30
2018-12-06T01:46:12.286Z,11.35
2018-12-06T01:48:41.973Z,14.75
2018-12-06T01:51:11.618Z,11.95
2018-12-06T01:53:41.352Z,14.45
2018-12-06T01:56:11.294Z,15.88
2018-12-06T01:58:41.653Z,20.32
2018-12-06T02:01:12.861Z,14.93
2018-12-06T02:03:43.117Z,13.50
2018-12-06T02:06:14.336Z,14.20
2018-12-06T02:08:45.418Z,8.70
2018-12-06T02:11:15.516Z,12.40
2018-12-06T02:13:46.529Z,13.83
2018-12-06T02:16:16.206Z,15.95
2018-12-06T02:18:45.753Z,8.93
2018-12-06T02:21:15.883Z,8.33
2018-12-06T02:23:46.178Z,18.77
2018-12-06T02:26:17.023Z,11.03
2018-12-06T02:28:48.694Z,12.95
2018-12-06T02:31:18.380Z,20.80
2018-12-06T02:33:48.695Z,10.55
2018-12-06T02:36:19.231Z,15.38
2018-12-06T02:38:48.985Z,13.05
2018-12-06T02:41:20.076Z,17.75
2018-12-06T02:43:49.718Z,17.27
2018-12-06T02:46:20.451Z,8.75
2018-12-06T02:48:51.080Z,12.80
2018-12-06T02:51:20.599Z,8.00
2018-12-06T02:53:50.469Z,10.60
2018-12-06T02:56:20.091Z,12.58
2018-12-06T02:58:49.837Z,10.23
2018-12-06T03:01:19.552Z,14.43
2018-12-06T03:03:49.678Z,9.48
2018-12-06T03:06:19.639Z,9.00
2018-12-06T03:08:49.675Z,9.45
2018-12-06T03:11:20.523Z,12.63
2018-12-06T03:13:50.612Z,10.58
2018-12-06T03:16:21.700Z,19.73
2018-12-06T03:18:51.393Z,12.35
2018-12-06T03:21:22.197Z,10.10
2018-12-06T03:23:52.089Z,21.93
2018-12-06T03:26:21.990Z,11.97
2018-12-06T03:28:52.292Z,13.90
2018-12-06T03:31:27.307Z,9.20
2018-12-06T03:33:57.317Z,13.70
2018-12-06T03:36:27.156Z,10.95
2018-12-06T03:39:01.665Z,12.23
2018-12-06T03:41:32.097Z,11.97
2018-12-06T03:44:04.042Z,11.43
2018-12-06T03:46:33.726Z,19.73
2018-12-06T03:49:03.699Z,12.13
2018-12-06T03:51:33.949Z,14.47
2018-12-06T03:54:05.667Z,19.23
2018-12-06T03:56:40.419Z,13.58
2018-12-06T03:59:10.283Z,13.38
2018-12-06T04:01:40.351Z,13.65
2018-12-06T04:04:12.262Z,14.68
2018-12-06T04:06:42.975Z,28.17
2018-12-06T04:09:13.460Z,15.25
2018-12-06T04:11:43.261Z,10.95
2018-12-06T04:14:13.284Z,11.50
2018-12-06T04:16:44.163Z,22.10
2018-12-06T04:19:14.419Z,13.80
2018-12-06T04:21:44.305Z,17.92
2018-12-06T04:24:17.897Z,13.68
2018-12-06T04:26:47.619Z,11.00
2018-12-06T04:29:17.621Z,15.63
2018-12-06T04:31:47.456Z,19.73
2018-12-06T04:34:19.002Z,14.47
2018-12-06T04:36:48.623Z,14.15
2018-12-06T04:39:19.533Z,18.17
2018-12-06T04:41:49.603Z,11.70
2018-12-06T04:44:19.737Z,8.55
2018-12-06T04:46:50.081Z,16.42
2018-12-06T04:49:19.729Z,16.67
2018-12-06T04:51:49.398Z,16.10
2018-12-06T04:54:19.393Z,15.98
2018-12-06T04:56:50.338Z,20.50
2018-12-06T04:59:20.061Z,17.98
2018-12-06T05:01:49.915Z,14.30
2018-12-06T05:04:19.982Z,23.18
2018-12-06T05:06:49.835Z,17.70
2018-12-06T05:09:19.842Z,17.92
2018-12-06T05:11:49.995Z,19.48
2018-12-06T05:14:21.276Z,15.40
2018-12-06T05:16:51.303Z,19.55
2018-12-06T05:19:20.536Z,20.05
2018-12-06T05:21:49.831Z,14.85
2018-12-06T05:24:23.697Z,20.23
2018-12-06T05:26:53.002Z,18.12
2018-12-06T05:29:22.280Z,13.25
2018-12-06T05:31:51.650Z,17.52
2018-12-06T05:34:21.008Z,16.85
2018-12-06T05:36:50.314Z,19.98
2018-12-06T05:39:20.491Z,20.37
2018-12-06T05:41:49.862Z,19.25
2018-12-06T05:44:19.200Z,15.78
2018-12-06T05:46:48.827Z,25.12
2018-12-06T05:49:18.350Z,19.55
2018-12-06T05:51:47.645Z,15.50
2018-12-06T05:54:17.123Z,21.80
2018-12-06T05:56:46.368Z,12.55
2018-12-06T05:59:15.736Z,16.82
2018-12-06T06:01:45.111Z,16.70
2018-12-06T06:04:14.530Z,17.80
2018-12-06T06:06:43.858Z,17.95
2018-12-06T06:09:13.300Z,19.23
2018-12-06T06:11:43.111Z,19.10
2018-12-06T06:14:12.757Z,26.07
2018-12-06T06:16:42.141Z,16.25
2018-12-06T06:19:11.541Z,22.75
2018-12-06T06:21:40.860Z,21.48
2018-12-06T06:24:10.851Z,21.33
2018-12-06T06:26:40.485Z,18.57
2018-12-06T06:29:09.824Z,19.30
2018-12-06T06:31:39.235Z,22.90
2018-12-06T06:34:08.477Z,20.25
2018-12-06T06:36:37.854Z,20.00
2018-12-06T06:39:07.912Z,18.80
2018-12-06T06:41:37.184Z,29.02
2018-12-06T06:44:06.785Z,21.42
2018-12-06T06:46:36.914Z,29.20
2018-12-06T06:49:13.570Z,29.87
2018-12-06T06:51:37.921Z,20.97
2018-12-06T06:54:07.231Z,27.05
2018-12-06T06:56:36.719Z,32.30
2018-12-06T06:59:06.938Z,31.97
2018-12-06T07:01:36.316Z,29.60
2018-12-06T07:04:05.697Z,24.92
2018-12-06T07:06:36.396Z,37.03
2018-12-06T07:09:08.080Z,31.60
2018-12-06T07:11:38.333Z,35.60
2018-12-06T07:14:09.743Z,37.50
2018-12-06T07:16:41.401Z,33.88
2018-12-06T07:19:12.851Z,48.80
2018-12-06T07:21:44.583Z,32.08
2018-12-06T07:24:15.949Z,34.15
2018-12-06T07:26:47.537Z,50.25
2018-12-06T07:29:18.612Z,46.48
2018-12-06T07:31:50.948Z,36.50
2018-12-06T07:34:24.271Z,41.50
2018-12-06T07:36:56.032Z,36.30
2018-12-06T07:39:26.203Z,39.85
2018-12-06T07:41:57.347Z,46.20
2018-12-06T07:44:28.784Z,45.73
2018-12-06T07:47:00.585Z,45.00
2018-12-06T07:49:31.937Z,46.25
2018-12-06T07:52:04.697Z,52.93
2018-12-06T07:54:35.962Z,50.58
2018-12-06T07:57:06.865Z,42.75
2018-12-06T07:59:38.618Z,41.88
2018-12-06T08:02:09.218Z,55.78
2018-12-06T08:04:41.630Z,60.78
2018-12-06T08:07:12.331Z,48.75
2018-12-06T08:09:43.812Z,53.15
2018-12-06T08:12:14.617Z,51.45
2018-12-06T08:14:45.844Z,47.85
2018-12-06T08:17:16.452Z,46.50
2018-12-06T08:19:46.874Z,36.95
2018-12-06T08:22:17.537Z,57.05
2018-12-06T08:24:48.031Z,72.92
2018-12-06T08:27:19.450Z,62.70
2018-12-06T08:29:53.098Z,44.83
2018-12-06T08:32:24.533Z,57.15
2018-12-06T08:34:56.752Z,62.27
2018-12-06T08:37:29.516Z,60.92
2018-12-06T08:40:01.460Z,59.18
2018-12-06T08:42:33.530Z,52.95
2018-12-06T08:45:04.425Z,50.65
2018-12-06T08:47:36.722Z,52.93
2018-12-06T08:50:13.011Z,51.25
2018-12-06T08:52:47.059Z,57.62
2018-12-06T08:55:16.493Z,58.10
2018-12-06T08:57:49.408Z,53.75
2018-12-06T09:00:19.076Z,63.98
2018-12-06T09:02:48.318Z,61.65
2018-12-06T09:05:18.064Z,65.72
2018-12-06T09:07:47.547Z,59.73
2018-12-06T09:10:17.824Z,71.17
2018-12-06T09:12:47.244Z,61.70
2018-12-06T09:15:16.703Z,63.02
2018-12-06T09:17:46.236Z,71.40
2018-12-06T09:20:17.905Z,73.72
2018-12-06T09:22:47.151Z,74.55
2018-12-06T09:25:21.012Z,78.40
2018-12-06T09:27:47.974Z,87.67
2018-12-06T09:30:17.756Z,71.45
2018-12-06T09:32:47.019Z,106.63
2018-12-06T09:35:16.874Z,74.45
2018-12-06T09:37:46.727Z,78.30
2018-12-06T09:40:15.936Z,72.65
2018-12-06T09:42:45.398Z,99.22
2018-12-06T09:45:15.105Z,75.00
2018-12-06T09:47:44.478Z,81.25
2018-12-06T09:50:14.777Z,94.35
2018-12-06T09:52:44.051Z,94.60
2018-12-06T09:55:13.512Z,94.10
2018-12-06T09:57:42.749Z,79.20
2018-12-06T10:00:15.139Z,85.60
2018-12-06T10:02:44.404Z,87.60
2018-12-06T10:05:14.016Z,105.97
2018-12-06T10:07:43.688Z,92.57
2018-12-06T10:10:13.004Z,89.45
2018-12-06T10:12:42.349Z,82.42
2018-12-06T10:15:11.936Z,71.35
2018-12-06T10:17:42.303Z,87.30
2018-12-06T10:20:11.725Z,109.25
2018-12-06T10:22:41.465Z,100.80
2018-12-06T10:25:10.770Z,87.30
2018-12-06T10:27:40.254Z,83.65
2018-12-06T10:30:09.851Z,89.87
2018-12-06T10:32:39.347Z,97.62
2018-12-06T10:35:09.936Z,95.30
2018-12-06T10:37:39.303Z,112.05
2018-12-06T10:40:08.790Z,103.92
2018-12-06T10:42:38.328Z,107.65
2018-12-06T10:45:07.757Z,100.90
2018-12-06T10:47:37.222Z,112.47
2018-12-06T10:50:07.533Z,111.70
2018-12-06T10:52:36.860Z,91.20
2018-12-06T10:55:06.423Z,103.45
2018-12-06T10:57:36.419Z,99.20
2018-12-06T11:00:06.922Z,109.27
2018-12-06T11:02:41.628Z,100.45
2018-12-06T11:05:11.121Z,98.78
2018-12-06T11:07:40.611Z,107.32
2018-12-06T11:10:10.993Z,95.20
2018-12-06T11:12:40.561Z,100.55
2018-12-06T11:15:10.141Z,110.90
2018-12-06T11:17:39.488Z,117.13
2018-12-06T11:20:09.313Z,116.70
2018-12-06T11:22:39.354Z,131.25
2018-12-06T11:25:08.716Z,97.95
2018-12-06T11:27:37.981Z,108.42
2018-12-06T11:30:07.518Z,110.48
2018-12-06T11:32:36.885Z,108.10
2018-12-06T11:35:06.432Z,114.17
2018-12-06T11:37:36.730Z,97.55
2018-12-06T11:40:06.684Z,120.40
2018-12-06T11:42:35.973Z,91.02
2018-12-06T11:45:06.544Z,111.88
2018-12-06T11:47:35.812Z,107.03
2018-12-06T11:50:06.712Z,113.32
2018-12-06T11:52:35.998Z,96.20
2018-12-06T11:55:05.636Z,102.78
2018-12-06T11:57:36.100Z,97.33
2018-12-06T12:00:06.020Z,100.27
2018-12-06T12:02:35.275Z,107.78
2018-12-06T12:05:05.532Z,95.47
2018-12-06T12:07:34.950Z,95.70
2018-12-06T12:10:04.972Z,91.72
2018-12-06T12:12:34.426Z,99.30
2018-12-06T12:15:04.548Z,86.35
2018-12-06T12:17:34.080Z,93.35
2018-12-06T12:20:05.426Z,81.47
2018-12-06T12:22:34.817Z,84.25
2018-12-06T12:25:04.129Z,87.00
2018-12-06T12:27:33.679Z,90.25
2018-12-06T12:30:03.207Z,81.53
2018-12-06T12:32:32.876Z,87.20
2018-12-06T12:35:02.717Z,77.67
2018-12-06T12:37:31.963Z,78.00
2018-12-06T12:40:01.249Z,77.35
2018-12-06T12:42:30.546Z,70.60
2018-12-06T12:44:59.902Z,60.50
2018-12-06T12:47:31.049Z,70.10
2018-12-06T12:50:00.476Z,66.92
2018-12-06T12:52:29.861Z,68.97
2018-12-06T12:54:59.225Z,63.10
2018-12-06T12:57:28.662Z,69.05
2018-12-06T12:59:58.382Z,67.47
2018-12-06T13:02:27.836Z,57.93
2018-12-06T13:04:57.193Z,54.30
2018-12-06T13:07:26.481Z,50.90
2018-12-06T13:09:55.810Z,54.48
2018-12-06T13:12:25.072Z,64.27
2018-12-06T13:14:54.436Z,51.90
2018-12-06T13:17:25.183Z,48.42
2018-12-06T13:19:54.990Z,49.45
2018-12-06T13:22:24.599Z,52.30
2018-12-06T13:24:53.899Z,49.63
2018-12-06T13:27:23.415Z,47.15
2018-12-06T13:29:52.738Z,49.23
2018-12-06T13:32:22.359Z,53.50
2018-12-06T13:34:51.832Z,53.23
2018-12-06T13:37:21.465Z,45.75
2018-12-06T13:39:50.868Z,48.92
2018-12-06T13:42:23.512Z,48.73
2018-12-06T13:44:51.554Z,49.00
2018-12-06T13:47:20.957Z,44.58
2018-12-06T13:49:52.764Z,52.23
2018-12-06T13:52:24.369Z,50.83
2018-12-06T13:54:56.014Z,56.73
2018-12-06T13:57:25.721Z,55.90
2018-12-06T13:59:55.000Z,50.70
2018-12-06T14:02:24.397Z,55.50
2018-12-06T14:04:53.744Z,50.83
2018-12-06T14:07:23.163Z,44.93
2018-12-06T14:09:52.428Z,50.63
2018-12-06T14:12:21.937Z,48.38
2018-12-06T14:14:51.214Z,49.63
2018-12-06T14:17:20.509Z,57.25
2018-12-06T14:19:49.784Z,61.00
2018-12-06T14:22:19.028Z,54.05
2018-12-06T14:24:48.468Z,48.37
2018-12-06T14:27:18.426Z,59.35
2018-12-06T14:29:47.713Z,54.53
2018-12-06T14:32:17.051Z,55.23
2018-12-06T14:34:46.390Z,60.00
2018-12-06T14:37:15.786Z,73.70
2018-12-06T14:39:46.453Z,59.18
2018-12-06T14:42:15.767Z,55.33
2018-12-06T14:44:45.229Z,52.57
2018-12-06T14:47:14.496Z,54.33
2018-12-06T14:49:43.870Z,51.30
2018-12-06T14:52:13.293Z,52.57
2018-12-06T14:54:43.716Z,50.67
2018-12-06T14:57:13.091Z,49.63
2018-12-06T14:59:43.295Z,54.58
2018-12-06T15:02:12.626Z,55.23
2018-12-06T15:04:41.934Z,51.70
2018-12-06T15:07:11.248Z,55.77
2018-12-06T15:09:40.971Z,49.50
2018-12-06T15:12:10.273Z,44.80
2018-12-06T15:14:39.600Z,42.93
2018-12-06T15:17:09.866Z,47.80
2018-12-06T15:19:39.360Z,42.20
2018-12-06T15:22:08.650Z,44.70
2018-12-06T15:24:37.941Z,41.87
2018-12-06T15:27:07.266Z,39.83
2018-12-06T15:29:36.614Z,45.17
2018-12-06T15:32:06.279Z,39.83
2018-12-06T15:34:35.528Z,40.70
2018-12-06T15:37:05.129Z,35.47
2018-12-06T15:39:35.617Z,38.53
2018-12-06T15:42:05.268Z,43.57
2018-12-06T15:44:34.682Z,40.07
2018-12-06T15:47:05.985Z,42.73
2018-12-06T15:49:35.273Z,40.57
2018-12-06T15:52:05.204Z,39.07
2018-12-06T15:54:35.430Z,51.20
2018-12-06T15:57:04.812Z,35.50
2018-12-06T15:59:34.057Z,35.10
2018-12-06T16:02:04.341Z,36.80
2018-12-06T16:04:33.900Z,41.33
2018-12-06T16:07:03.606Z,40.90
2018-12-06T16:09:33.013Z,43.63
2018-12-06T16:12:02.321Z,41.37
2018-12-06T16:14:31.628Z,40.37
2018-12-06T16:17:00.946Z,41.37
2018-12-06T16:19:30.421Z,39.60
2018-12-06T16:21:59.681Z,50.53
2018-12-06T16:24:29.133Z,47.53
2018-12-06T16:26:58.452Z,47.37
2018-12-06T16:29:27.765Z,47.87
2018-12-06T16:31:57.360Z,51.40
2018-12-06T16:34:26.584Z,55.03
2018-12-06T16:36:55.913Z,45.40
2018-12-06T16:39:26.049Z,54.23
2018-12-06T16:41:55.498Z,53.80
2018-12-06T16:44:24.940Z,45.93
2018-12-06T16:46:54.226Z,50.87
2018-12-06T16:49:24.590Z,49.43
2018-12-06T16:51:54.459Z,49.17
2018-12-06T16:54:23.718Z,54.73
2018-12-06T16:56:52.996Z,56.63
2018-12-06T16:59:33.503Z,50.23
2018-12-06T17:02:03.066Z,67.10
2018-12-06T17:04:33.456Z,58.80
2018-12-06T17:07:04.261Z,64.33
2018-12-06T17:09:35.052Z,53.73
2018-12-06T17:12:04.384Z,55.17
2018-12-06T17:14:35.352Z,50.33
2018-12-06T17:17:04.623Z,53.07
2018-12-06T17:19:33.944Z,52.53
2018-12-06T17:22:05.624Z,55.00
2018-12-06T17:24:34.963Z,48.33
2018-12-06T17:27:04.220Z,51.00
2018-12-06T17:29:33.653Z,48.33
2018-12-06T17:32:03.096Z,61.80
2018-12-06T17:34:32.496Z,51.73
2018-12-06T17:37:01.934Z,75.67
2018-12-06T17:39:31.255Z,42.73
2018-12-06T17:42:00.541Z,46.87
2018-12-06T17:44:30.066Z,47.20
2018-12-06T17:47:01.201Z,35.47
2018-12-06T17:52:19.857Z,33.77
2018-12-06T17:54:49.080Z,39.40
2018-12-06T17:57:18.910Z,37.60
2018-12-06T17:59:48.135Z,45.33
2018-12-06T18:02:17.463Z,36.17
2018-12-06T18:04:46.868Z,37.70
2018-12-06T18:07:16.671Z,44.37
2018-12-06T18:09:47.706Z,39.90
2018-12-06T18:12:17.280Z,32.60
2018-12-06T18:14:46.645Z,39.07
2018-12-06T18:17:16.012Z,32.10
2018-12-06T18:19:45.468Z,33.63
2018-12-06T18:22:14.677Z,35.17
2018-12-06T18:24:43.966Z,32.90
2018-12-06T18:27:14.830Z,32.63
2018-12-06T18:29:44.457Z,28.73
2018-12-06T18:32:13.738Z,33.80
2018-12-06T18:34:44.003Z,29.60
2018-12-06T18:37:13.400Z,32.30
2018-12-06T18:39:43.360Z,32.47
2018-12-06T18:42:12.687Z,25.60
2018-12-06T18:44:41.969Z,28.77
2018-12-06T18:47:14.650Z,29.93
2018-12-06T18:49:43.888Z,32.43
2018-12-06T18:52:13.468Z,31.07
2018-12-06T18:54:42.826Z,29.93
2018-12-06T18:57:13.113Z,26.20
2018-12-06T18:59:42.380Z,28.77
2018-12-06T19:02:11.721Z,29.90
2018-12-06T19:04:41.151Z,27.73
2018-12-06T19:07:10.618Z,25.90
2018-12-06T19:09:39.891Z,29.47
2018-12-06T19:12:10.262Z,33.80
2018-12-06T19:14:39.645Z,27.30
2018-12-06T19:17:08.946Z,26.33
2018-12-06T19:19:38.400Z,26.00
2018-12-06T19:22:07.761Z,32.07
2018-12-06T19:24:37.042Z,34.17
2018-12-06T19:27:06.388Z,27.07
2018-12-06T19:29:35.745Z,26.47
2018-12-06T19:32:05.409Z,28.40
2018-12-06T19:34:35.985Z,31.10
2018-12-06T19:37:05.296Z,29.03
2018-12-06T19:39:34.567Z,52.70
2018-12-06T19:42:04.060Z,30.83
2018-12-06T19:44:33.445Z,35.83
2018-12-06T19:47:02.786Z,31.60
2018-12-06T19:49:32.057Z,30.60
2018-12-06T19:52:01.886Z,35.40
2018-12-06T19:54:31.284Z,28.57
2018-12-06T19:57:00.747Z,38.60
2018-12-06T19:59:30.225Z,34.60
2018-12-06T20:01:59.779Z,34.30
2018-12-06T20:04:29.469Z,31.77
2018-12-06T20:06:58.976Z,26.93
2018-12-06T20:09:28.248Z,28.90
2018-12-06T20:11:59.462Z,23.00
2018-12-06T20:14:28.718Z,31.30
2018-12-06T20:17:01.715Z,26.43
2018-12-06T20:19:30.967Z,23.80
2018-12-06T20:22:00.468Z,26.40
2018-12-06T20:24:30.561Z,24.73
2018-12-06T20:26:59.958Z,26.20
2018-12-06T20:29:29.260Z,28.43
2018-12-06T20:31:59.981Z,31.60
2018-12-06T20:34:29.226Z,31.47
2018-12-06T20:36:58.545Z,37.80
2018-12-06T20:39:27.868Z,33.93
2018-12-06T20:41:58.691Z,34.47
2018-12-06T20:44:28.008Z,43.00
2018-12-06T20:46:58.190Z,42.20
2018-12-06T20:49:27.892Z,32.83
2018-12-06T20:51:57.286Z,32.03
2018-12-06T20:54:26.628Z,31.90
2018-12-06T20:56:56.305Z,31.93
2018-12-06T20:59:25.745Z,34.60
2018-12-06T21:01:55.235Z,42.77
2018-12-06T21:04:25.062Z,43.97
2018-12-06T21:06:55.098Z,28.73
2018-12-06T21:09:26.213Z,36.63
2018-12-06T21:11:55.495Z,39.60
2018-12-06T21:14:25.291Z,34.17
2018-12-06T21:16:54.538Z,32.40
2018-12-06T21:19:23.872Z,33.57
2018-12-06T21:21:53.327Z,34.67
2018-12-06T21:24:22.554Z,35.90
2018-12-06T21:26:51.905Z,40.20
2018-12-06T21:29:21.656Z,46.10
2018-12-06T21:31:50.947Z,43.00
2018-12-06T21:34:20.212Z,42.87
2018-12-06T21:36:50.816Z,40.13
2018-12-06T21:39:20.369Z,58.87
2018-12-06T21:41:49.822Z,50.17
2018-12-06T21:44:20.310Z,40.80
2018-12-06T21:46:49.613Z,40.33
2018-12-06T21:49:19.044Z,47.43
2018-12-06T21:51:48.466Z,43.67
2018-12-06T21:54:17.815Z,47.13
2018-12-06T21:56:47.438Z,38.43
2018-12-06T21:59:16.967Z,40.23
2018-12-06T22:01:46.451Z,32.57
2018-12-06T22:04:15.705Z,27.93
2018-12-06T22:06:45.042Z,30.60
2018-12-06T22:09:15.356Z,30.40
2018-12-06T22:11:44.687Z,28.50
2018-12-06T22:14:14.027Z,27.83
2018-12-06T22:16:43.357Z,28.37
2018-12-06T22:19:12.626Z,33.60
2018-12-06T22:21:42.003Z,32.53
2018-12-06T22:24:11.392Z,39.60
2018-12-06T22:26:40.972Z,32.97
2018-12-06T22:29:10.388Z,30.80
2018-12-06T22:31:39.670Z,29.47
2018-12-06T22:34:09.104Z,30.50
2018-12-06T22:36:38.444Z,31.40
2018-12-06T22:39:08.052Z,28.57
2018-12-06T22:41:37.394Z,24.70
2018-12-06T22:44:06.675Z,25.53
2018-12-06T22:46:35.984Z,24.70
2018-12-06T22:49:05.467Z,23.17
2018-12-06T22:51:34.767Z,26.83
2018-12-06T22:54:04.627Z,20.80
2018-12-06T22:56:33.891Z,21.03
2018-12-06T22:59:03.445Z,17.80
2018-12-06T23:01:37.996Z,20.67
2018-12-06T23:04:07.280Z,23.00
2018-12-06T23:06:36.843Z,19.63
2018-12-06T23:09:09.207Z,17.10
2018-12-06T23:11:39.047Z,21.07
2018-12-06T23:14:08.368Z,17.53
2018-12-06T23:16:38.903Z,17.60
2018-12-06T23:19:08.305Z,15.90
2018-12-06T23:21:37.928Z,18.63
2018-12-06T23:24:08.981Z,13.03
2018-12-06T23:26:38.485Z,15.17
2018-12-06T23:29:07.744Z,13.50
2018-12-06T23:31:37.420Z,12.77
2018-12-06T23:34:06.633Z,13.00
2018-12-06T23:36:36.332Z,13.17
2018-12-06T23:39:07.742Z,14.90
2018-12-06T23:41:37.007Z,11.10
2018-12-06T23:44:06.280Z,12.27
2018-12-06T23:46:35.557Z,14.60
2018-12-06T23:49:05.348Z,10.43
2018-12-06T23:51:39.345Z,11.43
2018-12-06T23:54:08.952Z,18.83
2018-12-06T23:56:38.217Z,9.03
2018-12-06T23:59:07.534Z,11.97
